createdAt,value
2019-01-19T00:01:26.745Z,101228.08
2019-01-19T00:03:54.198Z,101225.14
2019-01-19T00:06:51.659Z,101224.53
2019-01-19T00:09:27.646Z,101222.77
2019-01-19T00:12:07.012Z,101223.95
2019-01-19T00:14:31.516Z,101220.50
2019-01-19T00:17:13.359Z,101217.09
2019-01-19T00:19:57.352Z,101216.70
2019-01-19T00:22:38.952Z,101220.00
2019-01-19T00:25:27.261Z,101219.62
2019-01-19T00:28:10.925Z,101221.57
2019-01-19T00:30:44.198Z,101217.39
2019-01-19T00:33:17.109Z,101220.31
2019-01-19T00:35:59.666Z,101211.70
2019-01-19T00:38:59.825Z,101214.87
2019-01-19T00:41:45.193Z,101210.39
2019-01-19T00:44:24.207Z,101218.61
2019-01-19T00:46:51.668Z,101214.44
2019-01-19T00:49:18.028Z,101216.28
2019-01-19T00:51:45.486Z,101220.94
2019-01-19T00:54:21.807Z,101222.81
2019-01-19T00:56:49.289Z,101212.42
2019-01-19T00:59:16.744Z,101211.39
2019-01-19T01:02:03.674Z,101216.72
2019-01-19T01:04:42.793Z,101216.80
2019-01-19T01:07:26.631Z,101216.38
2019-01-19T01:10:13.237Z,101215.32
2019-01-19T01:13:01.351Z,101219.02
2019-01-19T01:15:40.644Z,101211.94
2019-01-19T01:18:16.774Z,101211.36
2019-01-19T01:20:49.912Z,101211.89
2019-01-19T01:23:32.439Z,101215.58
2019-01-19T01:26:20.643Z,101209.91
2019-01-19T01:28:50.794Z,101212.66
2019-01-19T01:31:33.201Z,101207.06
2019-01-19T01:34:18.594Z,101212.66
2019-01-19T01:37:12.419Z,101209.05
2019-01-19T01:39:42.607Z,101207.33
2019-01-19T01:42:15.900Z,101209.87
2019-01-19T01:45:13.513Z,101204.32
2019-01-19T01:47:57.380Z,101209.50
2019-01-19T01:50:33.656Z,101211.16
2019-01-19T01:53:24.806Z,101208.58
2019-01-19T01:55:49.224Z,101211.70
2019-01-19T01:58:16.682Z,101205.98
2019-01-19T02:00:44.165Z,101211.07
2019-01-19T02:03:35.705Z,101208.08
2019-01-19T02:06:05.895Z,101213.03
2019-01-19T02:08:39.154Z,101211.61
2019-01-19T02:11:09.624Z,101201.68
2019-01-19T02:13:48.907Z,101210.27
2019-01-19T02:16:32.534Z,101202.89
2019-01-19T02:19:11.711Z,101206.50
2019-01-19T02:21:50.843Z,101208.61
2019-01-19T02:24:35.993Z,101204.64
2019-01-19T02:27:37.871Z,101205.70
2019-01-19T02:30:07.997Z,101201.73
2019-01-19T02:32:57.801Z,101205.92
2019-01-19T02:35:48.363Z,101209.91
2019-01-19T02:38:15.071Z,101209.17
2019-01-19T02:40:48.194Z,101203.84
2019-01-19T02:43:21.158Z,101209.89
2019-01-19T02:45:54.299Z,101208.03
2019-01-19T02:48:38.877Z,101212.67
2019-01-19T02:51:18.185Z,101207.16
2019-01-19T02:54:04.544Z,101211.44
2019-01-19T02:56:40.995Z,101205.12
2019-01-19T02:59:14.052Z,101208.17
2019-01-19T03:01:49.630Z,101211.91
2019-01-19T03:04:33.653Z,101211.97
2019-01-19T03:07:21.825Z,101204.78
2019-01-19T03:10:16.055Z,101207.94
2019-01-19T03:12:51.602Z,101204.13
2019-01-19T03:15:21.765Z,101201.75
2019-01-19T03:18:09.865Z,101199.97
2019-01-19T03:20:46.391Z,101204.41
2019-01-19T03:23:28.905Z,101208.67
2019-01-19T03:25:59.007Z,101202.11
2019-01-19T03:29:02.434Z,101202.61
2019-01-19T03:31:46.306Z,101202.23
2019-01-19T03:34:31.134Z,101196.48
2019-01-19T03:37:07.278Z,101202.75
2019-01-19T03:39:51.145Z,101198.28
2019-01-19T03:42:18.792Z,101193.09
2019-01-19T03:45:01.073Z,101194.69
2019-01-19T03:47:34.381Z,101200.59
2019-01-19T03:50:31.678Z,101198.59
2019-01-19T03:53:07.273Z,101197.38
2019-01-19T03:55:55.438Z,101192.61
2019-01-19T03:58:50.034Z,101189.13
2019-01-19T04:01:35.152Z,101193.59
2019-01-19T04:04:20.262Z,101194.89
2019-01-19T04:06:56.296Z,101198.50
2019-01-19T04:09:42.962Z,101198.42
2019-01-19T04:12:37.307Z,101192.66
2019-01-19T04:15:24.087Z,101191.71
2019-01-19T04:17:57.353Z,101198.55
2019-01-19T04:20:44.227Z,101199.50
2019-01-19T04:23:08.640Z,101196.82
2019-01-19T04:25:40.570Z,101195.25
2019-01-19T04:28:05.874Z,101191.16
2019-01-19T04:30:30.289Z,101191.14
2019-01-19T04:32:54.709Z,101197.42
2019-01-19T04:35:19.607Z,101186.75
2019-01-19T04:37:44.033Z,101181.60
2019-01-19T04:40:12.035Z,101178.03
2019-01-19T04:42:37.224Z,101182.56
2019-01-19T04:45:01.635Z,101182.09
2019-01-19T04:47:26.032Z,101179.40
2019-01-19T04:49:50.452Z,101176.23
2019-01-19T04:52:14.858Z,101176.95
2019-01-19T04:54:39.398Z,101172.13
2019-01-19T04:57:03.794Z,101175.02
2019-01-19T04:59:28.235Z,101172.45
2019-01-19T05:01:52.636Z,101175.48
2019-01-19T05:04:17.054Z,101169.16
2019-01-19T05:06:41.504Z,101170.47
2019-01-19T05:09:07.391Z,101171.17
2019-01-19T05:11:31.856Z,101174.67
2019-01-19T05:13:56.274Z,101174.06
2019-01-19T05:16:20.745Z,101163.16
2019-01-19T05:18:45.148Z,101163.95
2019-01-19T05:21:09.778Z,101160.53
2019-01-19T05:23:34.376Z,101156.61
2019-01-19T05:25:58.857Z,101163.67
2019-01-19T05:28:23.250Z,101161.64
2019-01-19T05:30:47.729Z,101164.47
2019-01-19T05:33:12.173Z,101166.02
2019-01-19T05:35:36.585Z,101168.46
2019-01-19T05:38:01.999Z,101173.22
2019-01-19T05:40:26.496Z,101165.55
2019-01-19T05:42:51.009Z,101169.05
2019-01-19T05:45:15.580Z,101162.74
2019-01-19T05:47:40.054Z,101114.14
2019-01-19T05:50:07.854Z,101169.11
2019-01-19T05:52:32.268Z,101168.03
2019-01-19T05:54:56.711Z,101167.00
2019-01-19T05:57:21.123Z,101168.60
2019-01-19T05:59:45.573Z,101171.33
2019-01-19T06:02:10.127Z,101177.31
2019-01-19T06:04:34.523Z,101174.42
2019-01-19T06:06:58.938Z,101178.48
2019-01-19T06:09:23.351Z,101187.84
2019-01-19T06:11:47.781Z,101183.84
2019-01-19T06:14:12.191Z,101180.14
2019-01-19T06:16:36.633Z,101185.68
2019-01-19T06:19:01.127Z,101187.78
2019-01-19T06:21:26.921Z,101189.52
2019-01-19T06:23:51.353Z,101187.72
2019-01-19T06:26:15.751Z,101189.58
2019-01-19T06:28:40.556Z,101182.75
2019-01-19T06:31:04.962Z,101188.51
2019-01-19T06:33:29.388Z,101187.59
2019-01-19T06:35:53.810Z,101184.09
2019-01-19T06:38:18.226Z,101187.77
2019-01-19T06:40:42.629Z,101190.05
2019-01-19T06:43:07.041Z,101180.41
2019-01-19T06:45:31.451Z,101185.25
2019-01-19T06:47:55.868Z,101183.71
2019-01-19T06:50:20.648Z,101188.68
2019-01-19T06:52:45.125Z,101184.41
2019-01-19T06:55:12.059Z,101184.54
2019-01-19T06:57:36.500Z,101181.78
2019-01-19T07:00:00.903Z,101186.09
2019-01-19T07:02:25.328Z,101186.48
2019-01-19T07:04:49.749Z,101179.44
2019-01-19T07:07:14.203Z,101185.45
2019-01-19T07:09:38.594Z,101188.10
2019-01-19T07:12:03.168Z,101190.50
2019-01-19T07:14:27.587Z,101191.59
2019-01-19T07:16:52.000Z,101188.59
2019-01-19T07:19:16.433Z,101191.47
2019-01-19T07:21:40.852Z,101187.03
2019-01-19T07:24:05.259Z,101193.30
2019-01-19T07:26:29.656Z,101181.55
2019-01-19T07:28:54.080Z,101194.98
2019-01-19T07:31:18.494Z,101191.12
2019-01-19T07:33:42.910Z,101194.67
2019-01-19T07:36:07.345Z,101194.77
2019-01-19T07:38:31.765Z,101202.00
2019-01-19T07:40:56.208Z,101201.50
2019-01-19T07:43:21.003Z,101204.20
2019-01-19T07:45:45.793Z,101203.10
2019-01-19T07:48:10.939Z,101203.33
2019-01-19T07:50:35.352Z,101202.01
2019-01-19T07:52:59.755Z,101209.50
2019-01-19T07:55:24.159Z,101209.27
2019-01-19T07:57:48.598Z,101215.63
2019-01-19T08:00:21.949Z,101218.04
2019-01-19T08:02:46.549Z,101214.88
2019-01-19T08:05:11.187Z,101216.91
2019-01-19T08:07:35.650Z,101217.38
2019-01-19T08:10:00.135Z,101219.00
2019-01-19T08:12:24.691Z,101213.53
2019-01-19T08:14:49.110Z,101222.27
2019-01-19T08:17:13.540Z,101212.89
2019-01-19T08:19:37.964Z,101213.53
2019-01-19T08:22:02.374Z,101219.00
2019-01-19T08:24:26.808Z,101217.69
2019-01-19T08:26:51.218Z,101219.75
2019-01-19T08:29:15.656Z,101223.75
2019-01-19T08:31:40.083Z,101224.67
2019-01-19T08:34:04.552Z,101220.91
2019-01-19T08:36:29.062Z,101222.66
2019-01-19T08:38:53.464Z,101219.94
2019-01-19T08:41:17.910Z,101218.31
2019-01-19T08:43:43.962Z,101218.48
2019-01-19T08:46:08.463Z,101224.25
2019-01-19T08:48:32.876Z,101222.45
2019-01-19T08:50:57.331Z,101225.34
2019-01-19T08:53:21.735Z,101223.31
2019-01-19T08:55:46.125Z,101226.57
2019-01-19T08:58:10.637Z,101225.00
2019-01-19T09:00:35.079Z,101227.16
2019-01-19T09:02:59.508Z,101229.14
2019-01-19T09:05:23.918Z,101230.92
2019-01-19T09:07:48.350Z,101231.70
2019-01-19T09:10:15.101Z,101231.53
2019-01-19T09:12:39.540Z,101231.42
2019-01-19T09:15:05.040Z,101236.58
2019-01-19T09:17:29.430Z,101233.00
2019-01-19T09:19:53.885Z,101238.80
2019-01-19T09:22:18.383Z,101236.95
2019-01-19T09:24:42.877Z,101239.97
2019-01-19T09:27:07.280Z,101240.91
2019-01-19T09:29:31.687Z,101240.84
2019-01-19T09:31:56.095Z,101242.03
2019-01-19T09:34:20.491Z,101244.50
2019-01-19T09:36:44.879Z,101242.64
2019-01-19T09:39:10.640Z,101245.18
2019-01-19T09:41:35.050Z,101246.28
2019-01-19T09:43:59.456Z,101242.63
2019-01-19T09:46:23.896Z,101244.39
2019-01-19T09:48:48.384Z,101236.55
2019-01-19T09:51:12.893Z,101239.35
2019-01-19T09:53:37.293Z,101239.29
2019-01-19T09:56:01.730Z,101236.73
2019-01-19T09:58:26.150Z,101241.52
2019-01-19T10:00:50.557Z,101247.17
2019-01-19T10:03:14.984Z,101239.97
2019-01-19T10:05:39.389Z,101239.88
2019-01-19T10:08:03.872Z,101236.77
2019-01-19T10:10:28.335Z,101238.70
2019-01-19T10:12:52.775Z,101242.94
2019-01-19T10:15:21.179Z,101240.45
2019-01-19T10:17:45.650Z,101237.30
2019-01-19T10:20:13.205Z,101242.73
2019-01-19T10:22:37.618Z,101236.44
2019-01-19T10:25:02.054Z,101233.67
2019-01-19T10:27:26.436Z,101237.97
2019-01-19T10:29:50.857Z,101233.47
2019-01-19T10:32:15.414Z,101234.27
2019-01-19T10:34:39.770Z,101233.24
2019-01-19T10:37:04.248Z,101225.22
2019-01-19T10:39:28.672Z,101225.48
2019-01-19T10:41:53.079Z,101225.59
2019-01-19T10:44:17.466Z,101216.84
2019-01-19T10:46:41.927Z,101216.00
2019-01-19T10:49:06.282Z,101215.34
2019-01-19T10:51:30.700Z,101208.94
2019-01-19T10:53:55.111Z,101208.59
2019-01-19T10:56:19.559Z,101214.91
2019-01-19T10:58:43.952Z,101214.34
2019-01-19T11:01:08.389Z,101208.17
2019-01-19T11:03:32.786Z,101209.45
2019-01-19T11:05:57.177Z,101205.31
2019-01-19T11:08:21.615Z,101199.17
2019-01-19T11:10:46.019Z,101146.33
2019-01-19T11:13:10.450Z,101194.80
2019-01-19T11:15:34.913Z,101191.09
2019-01-19T11:17:59.430Z,101181.08
2019-01-19T11:20:29.152Z,101182.84
2019-01-19T11:22:53.784Z,101176.98
2019-01-19T11:25:18.269Z,101174.09
2019-01-19T11:27:42.668Z,101172.87
2019-01-19T11:30:13.314Z,101167.99
2019-01-19T11:32:44.291Z,101165.69
2019-01-19T11:35:04.211Z,101163.02
2019-01-19T11:37:28.599Z,101167.57
2019-01-19T11:39:53.026Z,101160.72
2019-01-19T11:42:17.413Z,101168.72
2019-01-19T11:44:41.819Z,101163.82
2019-01-19T11:47:06.237Z,101163.70
2019-01-19T11:49:30.645Z,101154.81
2019-01-19T11:51:55.080Z,101150.10
2019-01-19T11:54:19.626Z,101149.26
2019-01-19T11:56:44.021Z,101149.19
2019-01-19T11:59:08.425Z,101142.48
2019-01-19T12:01:32.834Z,101133.22
2019-01-19T12:03:57.278Z,101149.93
2019-01-19T12:06:21.667Z,101139.65
2019-01-19T12:08:46.093Z,101144.64
2019-01-19T12:11:10.481Z,101140.96
2019-01-19T12:13:34.922Z,101142.99
2019-01-19T12:15:59.356Z,101131.93
2019-01-19T12:18:23.758Z,101129.90
2019-01-19T12:20:48.180Z,101131.08
2019-01-19T12:23:12.598Z,101131.18
2019-01-19T12:25:37.076Z,101129.45
2019-01-19T12:28:01.469Z,101128.59
2019-01-19T12:30:28.918Z,101127.83
2019-01-19T12:32:53.427Z,101127.14
2019-01-19T12:35:18.207Z,101130.22
2019-01-19T12:37:42.709Z,101125.97
2019-01-19T12:40:10.163Z,101119.83
2019-01-19T12:42:34.565Z,101111.30
2019-01-19T12:44:58.974Z,101103.92
2019-01-19T12:47:28.075Z,101109.74
2019-01-19T12:49:52.488Z,101106.39
2019-01-19T12:52:16.879Z,101110.02
2019-01-19T12:54:41.297Z,101110.64
2019-01-19T12:57:05.692Z,101104.42
2019-01-19T12:59:30.131Z,101105.45
2019-01-19T13:01:54.559Z,101112.36
2019-01-19T13:04:18.966Z,101099.64
2019-01-19T13:06:43.572Z,101102.55
2019-01-19T13:09:12.679Z,101097.36
2019-01-19T13:11:42.964Z,101093.41
2019-01-19T13:14:07.373Z,101089.69
2019-01-19T13:17:04.976Z,101087.95
2019-01-19T13:19:32.433Z,101086.75
2019-01-19T13:22:05.459Z,101088.28
2019-01-19T13:24:50.443Z,101083.66
2019-01-19T13:27:29.688Z,101084.09
2019-01-19T13:30:21.206Z,101084.34
2019-01-19T13:32:51.524Z,101079.62
2019-01-19T13:35:40.003Z,101075.37
2019-01-19T13:38:25.249Z,101078.31
2019-01-19T13:41:01.778Z,101075.95
2019-01-19T13:43:34.925Z,101072.75
2019-01-19T13:46:08.402Z,101072.47
2019-01-19T13:48:41.386Z,101072.36
2019-01-19T13:51:14.380Z,101071.60
2019-01-19T13:54:05.430Z,101064.83
2019-01-19T13:56:44.497Z,101069.17
2019-01-19T13:59:23.975Z,101066.88
2019-01-19T14:02:30.302Z,101066.17
2019-01-19T14:05:30.497Z,101068.59
2019-01-19T14:07:57.973Z,101066.63
2019-01-19T14:10:34.009Z,101058.55
2019-01-19T14:13:01.458Z,101057.53
2019-01-19T14:15:37.751Z,101051.86
2019-01-19T14:18:19.909Z,101052.59
2019-01-19T14:20:50.659Z,101054.27
2019-01-19T14:23:37.138Z,101057.87
2019-01-19T14:26:27.850Z,101054.39
2019-01-19T14:29:00.873Z,101058.79
2019-01-19T14:31:53.529Z,101049.48
2019-01-19T14:34:26.853Z,101048.35
2019-01-19T14:36:54.332Z,101051.50
2019-01-19T14:39:42.536Z,101051.16
2019-01-19T14:42:24.899Z,101045.22
2019-01-19T14:45:03.917Z,101048.02
2019-01-19T14:47:46.229Z,101053.64
2019-01-19T14:50:22.478Z,101047.91
2019-01-19T14:53:04.998Z,101046.91
2019-01-19T14:55:38.320Z,101048.58
2019-01-19T14:58:14.704Z,101046.01
2019-01-19T15:00:48.131Z,101045.86
2019-01-19T15:03:27.297Z,101045.86
2019-01-19T15:06:03.569Z,101043.28
2019-01-19T15:08:33.751Z,101039.78
2019-01-19T15:11:03.654Z,101041.94
2019-01-19T15:13:34.066Z,101037.98
2019-01-19T15:16:25.263Z,101036.62
2019-01-19T15:19:18.220Z,101031.49
2019-01-19T15:21:57.389Z,101034.64
2019-01-19T15:24:27.550Z,101036.78
2019-01-19T15:27:23.258Z,101037.92
2019-01-19T15:29:55.281Z,101028.45
2019-01-19T15:32:31.454Z,101026.27
2019-01-19T15:35:19.619Z,101030.19
2019-01-19T15:38:07.402Z,101031.13
2019-01-19T15:40:43.569Z,101028.56
2019-01-19T15:43:13.686Z,101033.66
2019-01-19T15:45:59.118Z,101029.71
2019-01-19T15:48:34.990Z,101029.92
2019-01-19T15:51:11.152Z,101024.70
2019-01-19T15:53:38.613Z,101019.72
2019-01-19T15:56:39.046Z,101025.80
2019-01-19T15:59:24.227Z,101032.44
2019-01-19T16:05:15.861Z,101026.64
2019-01-19T16:07:46.081Z,101023.45
2019-01-19T16:10:24.907Z,101022.41
2019-01-19T16:12:52.383Z,101024.48
2019-01-19T16:15:40.923Z,101026.70
2019-01-19T16:18:26.386Z,101019.83
2019-01-19T16:21:12.957Z,101020.84
2019-01-19T16:23:49.319Z,101021.69
2019-01-19T16:26:31.515Z,101018.17
2019-01-19T16:29:04.965Z,101017.52
2019-01-19T16:31:47.526Z,101016.37
2019-01-19T16:34:43.436Z,101017.59
2019-01-19T16:37:25.665Z,101017.59
2019-01-19T16:40:04.995Z,101014.89
2019-01-19T16:42:41.143Z,101012.66
2019-01-19T16:45:20.335Z,101015.59
2019-01-19T16:48:08.318Z,101021.20
2019-01-19T16:50:59.324Z,101016.51
2019-01-19T16:53:44.413Z,101015.67
2019-01-19T16:56:20.940Z,101014.98
2019-01-19T16:58:56.647Z,101015.20
2019-01-19T17:01:33.292Z,101013.77
2019-01-19T17:04:12.894Z,101021.59
2019-01-19T17:07:01.038Z,101013.70
2019-01-19T17:09:34.355Z,101012.39
2019-01-19T17:12:22.604Z,101011.42
2019-01-19T17:15:12.155Z,101011.88
2019-01-19T17:17:59.913Z,101008.83
2019-01-19T17:20:33.171Z,101007.80
2019-01-19T17:23:12.306Z,101005.98
2019-01-19T17:26:00.074Z,100998.76
2019-01-19T17:28:30.451Z,101000.61
2019-01-19T17:31:14.131Z,100997.96
2019-01-19T17:33:47.345Z,101003.16
2019-01-19T17:36:17.770Z,101003.67
2019-01-19T17:38:47.894Z,100999.50
2019-01-19T17:41:30.208Z,101001.38
2019-01-19T17:44:06.561Z,100996.11
2019-01-19T17:46:54.637Z,100999.27
2019-01-19T17:49:27.647Z,101006.58
2019-01-19T17:52:06.776Z,101000.84
2019-01-19T17:54:36.967Z,100999.86
2019-01-19T17:57:13.116Z,101004.45
2019-01-19T17:59:43.265Z,101005.12
2019-01-19T18:02:26.769Z,101004.22
2019-01-19T18:05:12.063Z,101008.61
2019-01-19T18:07:57.360Z,101005.52
2019-01-19T18:10:42.569Z,101004.74
2019-01-19T18:13:41.251Z,100998.02
2019-01-19T18:16:37.118Z,100996.24
2019-01-19T18:19:07.434Z,100996.92
2019-01-19T18:21:43.020Z,101001.77
2019-01-19T18:24:26.055Z,100998.87
2019-01-19T18:27:08.085Z,101000.31
2019-01-19T18:29:46.791Z,100999.27
2019-01-19T18:32:33.180Z,100998.03
2019-01-19T18:35:12.593Z,100999.47
2019-01-19T18:37:51.971Z,100999.11
2019-01-19T18:40:34.361Z,100997.16
2019-01-19T18:43:31.150Z,100993.95
2019-01-19T18:46:01.431Z,101005.77
2019-01-19T18:48:37.697Z,100995.31
2019-01-19T18:51:10.684Z,100997.90
2019-01-19T18:53:40.819Z,100997.97
2019-01-19T18:56:35.034Z,100998.60
2019-01-19T18:59:08.358Z,100993.37
2019-01-19T19:01:59.535Z,100988.53
2019-01-19T19:04:32.594Z,100991.66
2019-01-19T19:07:02.624Z,100991.72
2019-01-19T19:09:33.072Z,100986.52
2019-01-19T19:12:12.530Z,100988.92
2019-01-19T19:14:57.979Z,100982.13
2019-01-19T19:17:32.980Z,100994.30
2019-01-19T19:20:15.107Z,100979.91
2019-01-19T19:22:54.420Z,100981.84
2019-01-19T19:25:33.888Z,100988.72
2019-01-19T19:28:09.975Z,100994.62
2019-01-19T19:30:55.421Z,100987.55
2019-01-19T19:33:40.518Z,100985.22
2019-01-19T19:36:34.245Z,100986.91
2019-01-19T19:39:29.960Z,100988.75
2019-01-19T19:42:16.417Z,100987.77
2019-01-19T19:44:52.610Z,100992.83
2019-01-19T19:47:32.096Z,100991.30
2019-01-19T19:50:14.464Z,100998.81
2019-01-19T19:52:38.911Z,100993.72
2019-01-19T19:55:02.164Z,100986.72
2019-01-19T19:57:26.594Z,100995.77
2019-01-19T19:59:51.025Z,100995.98
2019-01-19T20:02:31.258Z,100988.39
2019-01-19T20:10:49.082Z,100991.87
2019-01-19T20:13:13.489Z,100993.28
2019-01-19T20:15:37.902Z,100988.66
2019-01-19T20:18:02.315Z,100991.39
2019-01-19T20:20:26.774Z,100987.13
2019-01-19T20:22:51.175Z,100993.11
2019-01-19T20:25:15.572Z,100990.86
2019-01-19T20:27:40.014Z,100995.98
2019-01-19T20:30:12.815Z,100995.69
2019-01-19T20:32:37.235Z,100992.53
2019-01-19T20:35:01.642Z,100990.52
2019-01-19T20:37:26.059Z,100997.41
2019-01-19T20:39:50.472Z,100992.34
2019-01-19T20:42:14.875Z,100993.41
2019-01-19T20:44:39.305Z,100994.90
2019-01-19T20:47:03.796Z,100990.06
2019-01-19T20:49:28.234Z,100991.78
2019-01-19T20:51:52.666Z,100987.41
2019-01-19T20:54:18.595Z,100990.72
2019-01-19T20:56:43.019Z,100990.76
2019-01-19T20:59:07.430Z,100987.72
2019-01-19T21:01:31.861Z,100983.15
2019-01-19T21:03:56.295Z,100993.11
2019-01-19T21:06:21.748Z,100989.80
2019-01-19T21:08:46.169Z,100995.44
2019-01-19T21:11:10.606Z,100990.11
2019-01-19T21:13:36.257Z,100987.83
2019-01-19T21:16:00.637Z,100982.20
2019-01-19T21:18:25.098Z,100979.69
2019-01-19T21:20:49.513Z,100984.59
2019-01-19T21:23:13.926Z,100988.02
2019-01-19T21:25:38.358Z,100984.59
2019-01-19T21:28:02.758Z,100987.83
2019-01-19T21:30:27.201Z,100993.33
2019-01-19T21:32:51.600Z,100989.34
2019-01-19T21:35:16.120Z,100982.81
2019-01-19T21:37:40.614Z,100991.54
2019-01-19T21:40:13.244Z,100981.66
2019-01-19T21:42:37.637Z,100986.48
2019-01-19T21:45:02.087Z,100998.95
2019-01-19T21:47:26.587Z,100989.13
2019-01-19T21:49:51.206Z,100987.83
2019-01-19T21:52:15.616Z,100989.23
2019-01-19T21:54:40.037Z,100989.66
2019-01-19T21:57:04.671Z,100989.37
2019-01-19T21:59:29.094Z,100988.37
2019-01-19T22:01:53.526Z,100993.05
2019-01-19T22:04:17.924Z,100979.67
2019-01-19T22:06:42.320Z,100982.55
2019-01-19T22:09:07.491Z,100975.86
2019-01-19T22:11:31.891Z,100984.06
2019-01-19T22:13:56.320Z,100983.41
2019-01-19T22:16:20.730Z,100983.91
2019-01-19T22:18:45.183Z,100983.05
2019-01-19T22:21:09.598Z,100978.66
2019-01-19T22:23:34.003Z,100977.34
2019-01-19T22:25:58.432Z,100975.19
2019-01-19T22:28:22.869Z,100978.37
2019-01-19T22:30:47.314Z,100974.33
2019-01-19T22:33:12.105Z,100969.73
2019-01-19T22:35:36.536Z,100971.17
2019-01-19T22:38:00.952Z,100976.42
2019-01-19T22:40:25.381Z,100971.25
2019-01-19T22:42:50.083Z,100975.56
2019-01-19T22:45:16.963Z,100971.69
2019-01-19T22:47:41.404Z,100977.50
2019-01-19T22:50:08.860Z,100976.42
2019-01-19T22:52:33.317Z,100975.98
2019-01-19T22:54:57.727Z,100974.27
2019-01-19T22:57:22.161Z,100973.41
2019-01-19T22:59:46.584Z,100972.55
2019-01-19T23:02:11.053Z,100969.39
2019-01-19T23:04:35.472Z,100968.30
2019-01-19T23:06:59.887Z,100974.41
2019-01-19T23:09:24.317Z,100978.94
2019-01-19T23:11:48.796Z,100969.37
2019-01-19T23:14:13.327Z,100962.25
2019-01-19T23:16:37.752Z,100969.03
2019-01-19T23:19:02.160Z,100972.11
2019-01-19T23:21:26.597Z,100969.37
2019-01-19T23:23:51.009Z,100973.27
2019-01-19T23:26:15.712Z,100965.22
2019-01-19T23:28:40.123Z,100963.20
2019-01-19T23:31:04.538Z,100962.48
2019-01-19T23:33:28.975Z,100962.40
2019-01-19T23:35:53.409Z,100963.81
2019-01-19T23:38:17.849Z,100961.74
2019-01-19T23:40:42.323Z,100954.84
2019-01-19T23:43:06.830Z,100960.31
2019-01-19T23:45:31.254Z,100955.19
2019-01-19T23:47:55.682Z,100956.50
2019-01-19T23:50:20.078Z,100948.30
2019-01-19T23:52:45.756Z,100952.03
2019-01-19T23:55:10.171Z,100950.14
2019-01-19T23:57:34.703Z,100949.95
2019-01-19T23:59:59.146Z,100953.95
